Time,TemperatureF,DewpointF,PressureIn,WindDirection,WindDirectionDegrees,WindSpeedMPH,WindSpeedGustMPH,Humidity,HourlyPrecipIn,Conditions,Clouds,dailyrainin,SoftwareType,DateUTC
2013-01-27 00:14:00,37.5,29.0,29.91,ENE,72,0.0,3.0,72,0.00,,,0.00,weatherlink.com 1.10,2013-01-26 23:14:00,
2013-01-27 00:29:00,37.3,29.0,29.91,ENE,57,1.0,3.0,72,0.00,,,0.00,weatherlink.com 1.10,2013-01-26 23:29:00,
2013-01-27 00:44:00,37.1,29.0,29.92,ENE,65,0.0,2.0,72,0.00,,,0.00,weatherlink.com 1.10,2013-01-26 23:44:00,
2013-01-27 00:59:00,36.9,29.0,29.92,NE,56,0.0,2.0,72,0.00,,,0.00,weatherlink.com 1.10,2013-01-26 23:59:00,
2013-01-27 01:14:00,36.7,28.0,29.92,NE,41,2.0,4.0,72,0.00,,,0.00,weatherlink.com 1.10,2013-01-27 00:14:00,
2013-01-27 01:29:00,36.5,28.0,29.92,ENE,63,1.0,5.0,72,0.00,,,0.00,weatherlink.com 1.10,2013-01-27 00:29:00,
2013-01-27 01:44:00,36.4,28.0,29.93,ENE,63,0.0,4.0,72,0.00,,,0.00,weatherlink.com 1.10,2013-01-27 00:44:00,
2013-01-27 01:59:00,36.4,29.0,29.93,ENE,72,0.0,2.0,73,0.00,,,0.00,weatherlink.com 1.10,2013-01-27 00:59:00,
2013-01-27 02:14:00,36.1,29.0,29.93,ENE,72,0.0,3.0,74,0.00,,,0.00,weatherlink.com 1.10,2013-01-27 01:14:00,
2013-01-27 02:29:00,36.0,28.0,29.94,NE,56,4.0,4.0,74,0.00,,,0.00,weatherlink.com 1.10,2013-01-27 01:29:00,
2013-01-27 02:44:00,35.7,29.0,29.94,ENE,64,2.0,3.0,75,0.00,,,0.00,weatherlink.com 1.10,2013-01-27 01:44:00,
2013-01-27 02:59:00,35.5,28.0,29.94,ENE,60,0.0,4.0,75,0.00,,,0.00,weatherlink.com 1.10,2013-01-27 01:59:00,
2013-01-27 03:14:00,35.4,29.0,29.95,ENE,74,0.0,3.0,76,0.00,,,0.00,weatherlink.com 1.10,2013-01-27 02:14:00,
2013-01-27 03:29:00,35.7,29.0,29.95,ENE,67,2.0,3.0,75,0.00,,,0.00,weatherlink.com 1.10,2013-01-27 02:29:00,
2013-01-27 03:44:00,35.6,29.0,29.95,NE,40,0.0,1.0,76,0.00,,,0.00,weatherlink.com 1.10,2013-01-27 02:44:00,
2013-01-27 03:59:00,35.1,29.0,29.95,NE,37,0.0,2.0,77,0.00,,,0.00,weatherlink.com 1.10,2013-01-27 02:59:00,
2013-01-27 04:14:00,34.9,28.0,29.96,ENE,72,2.0,2.0,77,0.00,,,0.00,weatherlink.com 1.10,2013-01-27 03:14:00,
2013-01-27 04:29:00,34.7,28.0,29.95,ENE,71,0.0,2.0,77,0.00,,,0.00,weatherlink.com 1.10,2013-01-27 03:29:00,
2013-01-27 04:44:00,34.5,28.0,29.95,ENE,70,2.0,4.0,77,0.00,,,0.00,weatherlink.com 1.10,2013-01-27 03:44:00,
2013-01-27 04:59:00,34.4,28.0,29.96,ENE,70,0.0,2.0,78,0.00,,,0.00,weatherlink.com 1.10,2013-01-27 03:59:00,
2013-01-27 05:14:00,34.4,28.0,29.96,ENE,76,1.0,1.0,78,0.00,,,0.00,weatherlink.com 1.10,2013-01-27 04:14:00,
2013-01-27 05:29:00,34.3,28.0,29.97,ENE,67,0.0,1.0,78,0.00,,,0.00,weatherlink.com 1.10,2013-01-27 04:29:00,
2013-01-27 05:44:00,34.7,29.0,29.97,ENE,68,1.0,2.0,78,0.00,,,0.00,weatherlink.com 1.10,2013-01-27 04:44:00,
2013-01-27 05:59:00,35.1,29.0,29.97,ENE,70,0.0,2.0,77,0.00,,,0.00,weatherlink.com 1.10,2013-01-27 04:59:00,
2013-01-27 06:14:00,35.2,29.0,29.98,ENE,73,2.0,2.0,77,0.00,,,0.00,weatherlink.com 1.10,2013-01-27 05:14:00,
2013-01-27 06:29:00,35.2,29.0,29.98,ENE,58,0.0,2.0,77,0.00,,,0.00,weatherlink.com 1.10,2013-01-27 05:29:00,
2013-01-27 06:44:00,34.7,29.0,29.98,ENE,64,0.0,3.0,78,0.00,,,0.00,weatherlink.com 1.10,2013-01-27 05:44:00,
2013-01-27 06:59:00,34.4,28.0,29.98,NE,52,1.0,4.0,78,0.00,,,0.00,weatherlink.com 1.10,2013-01-27 05:59:00,
2013-01-27 07:14:00,34.3,28.0,29.98,ENE,63,0.0,3.0,79,0.00,,,0.00,weatherlink.com 1.10,2013-01-27 06:14:00,
2013-01-27 07:29:00,34.0,28.0,29.99,ENE,68,1.0,3.0,79,0.00,,,0.00,weatherlink.com 1.10,2013-01-27 06:29:00,
2013-01-27 07:44:00,33.8,28.0,29.99,ENE,72,1.0,2.0,80,0.00,,,0.00,weatherlink.com 1.10,2013-01-27 06:44:00,
2013-01-27 07:59:00,34.1,28.0,30.00,ENE,64,2.0,5.0,79,0.00,,,0.00,weatherlink.com 1.10,2013-01-27 06:59:00,
2013-01-27 08:14:00,34.3,28.0,30.00,East,84,2.0,3.0,79,0.00,,,0.00,weatherlink.com 1.10,2013-01-27 07:14:00,
2013-01-27 08:29:00,34.7,29.0,30.00,ENE,67,2.0,4.0,78,0.00,,,0.00,weatherlink.com 1.10,2013-01-27 07:29:00,
2013-01-27 08:44:00,35.3,29.0,30.00,ENE,74,2.0,4.0,78,0.00,,,0.00,weatherlink.com 1.10,2013-01-27 07:44:00,
2013-01-27 08:59:00,35.9,29.0,30.00,ENE,78,2.0,3.0,77,0.00,,,0.00,weatherlink.com 1.10,2013-01-27 07:59:00,
2013-01-27 09:15:00,36.6,29.0,30.01,ENE,68,3.0,5.0,75,0.00,,,0.00,weatherlink.com 1.10,2013-01-27 08:15:00,
2013-01-27 09:30:00,37.2,29.0,30.01,ENE,67,3.0,7.0,73,0.00,,,0.00,weatherlink.com 1.10,2013-01-27 08:30:00,
2013-01-27 09:45:00,37.7,30.0,30.01,NE,41,3.0,7.0,73,0.00,,,0.00,weatherlink.com 1.10,2013-01-27 08:45:00,
2013-01-27 10:00:00,38.3,30.0,30.01,East,82,2.0,4.0,73,0.00,,,0.00,weatherlink.com 1.10,2013-01-27 09:00:00,
2013-01-27 10:15:00,39.1,31.0,30.01,NE,48,1.0,4.0,72,0.00,,,0.00,weatherlink.com 1.10,2013-01-27 09:15:00,
2013-01-27 10:30:00,40.0,31.0,30.01,ENE,71,1.0,4.0,71,0.00,,,0.00,weatherlink.com 1.10,2013-01-27 09:30:00,
2013-01-27 10:45:00,40.6,31.0,30.02,NE,39,2.0,4.0,69,0.00,,,0.00,weatherlink.com 1.10,2013-01-27 09:45:00,
2013-01-27 11:00:00,41.4,32.0,30.01,ENE,74,0.0,3.0,68,0.00,,,0.00,weatherlink.com 1.10,2013-01-27 10:00:00,
2013-01-27 11:15:00,42.1,32.0,30.01,ENE,60,2.0,3.0,68,0.00,,,0.00,weatherlink.com 1.10,2013-01-27 10:15:00,
2013-01-27 11:30:00,42.9,33.0,30.01,ENE,74,1.0,3.0,68,0.00,,,0.00,weatherlink.com 1.10,2013-01-27 10:30:00,
2013-01-27 11:45:00,43.8,33.0,30.01,ENE,68,1.0,3.0,67,0.00,,,0.00,weatherlink.com 1.10,2013-01-27 10:45:00,
2013-01-27 12:00:00,44.7,34.0,30.00,ENE,68,0.0,2.0,66,0.00,,,0.00,weatherlink.com 1.10,2013-01-27 11:00:00,
2013-01-27 12:15:00,45.5,35.0,30.01,ENE,64,1.0,1.0,66,0.00,,,0.00,weatherlink.com 1.10,2013-01-27 11:15:00,
2013-01-27 12:30:00,46.5,36.0,30.01,NE,55,0.0,0.0,66,0.00,,,0.00,weatherlink.com 1.10,2013-01-27 11:30:00,
2013-01-27 12:45:00,47.4,36.0,30.01,ESE,117,0.0,1.0,66,0.00,,,0.00,weatherlink.com 1.10,2013-01-27 11:45:00,
2013-01-27 13:00:00,48.7,38.0,30.01,South,172,0.0,0.0,67,0.00,,,0.00,weatherlink.com 1.10,2013-01-27 12:00:00,
2013-01-27 13:15:00,49.3,38.0,30.01,ENE,60,0.0,2.0,65,0.00,,,0.00,weatherlink.com 1.10,2013-01-27 12:15:00,
2013-01-27 13:30:00,49.6,39.0,30.01,ENE,67,0.0,1.0,66,0.00,,,0.00,weatherlink.com 1.10,2013-01-27 12:30:00,
2013-01-27 13:45:00,50.3,39.0,30.00,SSE,155,0.0,0.0,65,0.00,,,0.00,weatherlink.com 1.10,2013-01-27 12:45:00,
2013-01-27 14:00:00,51.0,40.0,30.00,South,180,0.0,0.0,66,0.00,,,0.00,weatherlink.com 1.10,2013-01-27 13:00:00,
2013-01-27 14:15:00,50.7,39.0,30.00,SSE,167,0.0,1.0,65,0.00,,,0.00,weatherlink.com 1.10,2013-01-27 13:15:00,
2013-01-27 14:30:00,51.1,39.0,30.00,South,173,0.0,1.0,64,0.00,,,0.00,weatherlink.com 1.10,2013-01-27 13:30:00,
2013-01-27 14:45:00,51.5,39.0,30.00,South,181,0.0,0.0,63,0.00,,,0.00,weatherlink.com 1.10,2013-01-27 13:45:00,
2013-01-27 15:00:00,51.0,38.0,30.00,ENE,57,1.0,1.0,62,0.00,,,0.00,weatherlink.com 1.10,2013-01-27 14:00:00,
2013-01-27 15:15:00,50.8,38.0,30.00,SE,136,0.0,0.0,63,0.00,,,0.00,weatherlink.com 1.10,2013-01-27 14:15:00,
2013-01-27 15:30:00,50.5,38.0,30.00,South,174,0.0,1.0,62,0.00,,,0.00,weatherlink.com 1.10,2013-01-27 14:30:00,
2013-01-27 15:45:00,50.3,38.0,30.00,ESE,106,0.0,0.0,63,0.00,,,0.00,weatherlink.com 1.10,2013-01-27 14:45:00,
2013-01-27 16:00:00,49.5,37.0,30.00,SSE,164,0.0,1.0,62,0.00,,,0.00,weatherlink.com 1.10,2013-01-27 15:00:00,
2013-01-27 16:15:00,49.1,36.0,30.00,SSE,154,0.0,0.0,62,0.00,,,0.00,weatherlink.com 1.10,2013-01-27 15:15:00,
2013-01-27 16:30:00,48.5,36.0,30.00,ENE,63,0.0,0.0,62,0.00,,,0.00,weatherlink.com 1.10,2013-01-27 15:30:00,
2013-01-27 16:45:00,48.0,36.0,30.00,East,88,0.0,0.0,63,0.00,,,0.00,weatherlink.com 1.10,2013-01-27 15:45:00,
2013-01-27 17:00:00,47.4,36.0,30.00,South,172,0.0,0.0,66,0.00,,,0.00,weatherlink.com 1.10,2013-01-27 16:00:00,
2013-01-27 17:15:00,46.4,36.0,30.00,South,172,0.0,0.0,68,0.00,,,0.00,weatherlink.com 1.10,2013-01-27 16:15:00,
2013-01-27 17:30:00,45.4,36.0,30.00,South,172,0.0,0.0,70,0.00,,,0.00,weatherlink.com 1.10,2013-01-27 16:30:00,
2013-01-27 17:45:00,44.7,36.0,30.00,South,172,0.0,0.0,72,0.00,,,0.00,weatherlink.com 1.10,2013-01-27 16:45:00,
2013-01-27 18:00:00,44.0,36.0,30.01,South,172,0.0,0.0,73,0.00,,,0.00,weatherlink.com 1.10,2013-01-27 17:00:00,
2013-01-27 18:16:00,43.0,36.0,30.01,South,172,0.0,0.0,76,0.00,,,0.00,weatherlink.com 1.10,2013-01-27 17:16:00,
2013-01-27 18:31:00,42.2,36.0,30.01,South,172,0.0,0.0,78,0.00,,,0.00,weatherlink.com 1.10,2013-01-27 17:31:00,
2013-01-27 18:46:00,41.6,36.0,30.02,South,172,0.0,0.0,80,0.00,,,0.00,weatherlink.com 1.10,2013-01-27 17:46:00,
2013-01-27 19:01:00,40.8,35.0,30.02,South,172,0.0,0.0,81,0.00,,,0.00,weatherlink.com 1.10,2013-01-27 18:01:00,
2013-01-27 19:16:00,40.2,35.0,30.02,South,172,0.0,0.0,82,0.00,,,0.00,weatherlink.com 1.10,2013-01-27 18:16:00,
2013-01-27 19:31:00,39.5,34.0,30.02,South,172,0.0,0.0,82,0.00,,,0.00,weatherlink.com 1.10,2013-01-27 18:31:00,
2013-01-27 19:46:00,38.8,34.0,30.02,South,172,0.0,0.0,83,0.00,,,0.00,weatherlink.com 1.10,2013-01-27 18:46:00,
2013-01-27 20:01:00,38.2,34.0,30.02,South,172,0.0,0.0,84,0.00,,,0.00,weatherlink.com 1.10,2013-01-27 19:01:00,
2013-01-27 20:16:00,37.6,34.0,30.02,South,172,0.0,0.0,85,0.00,,,0.00,weatherlink.com 1.10,2013-01-27 19:16:00,
2013-01-27 20:31:00,37.2,33.0,30.01,South,172,0.0,0.0,85,0.00,,,0.00,weatherlink.com 1.10,2013-01-27 19:31:00,
2013-01-27 20:46:00,36.9,33.0,30.01,South,172,0.0,0.0,86,0.00,,,0.00,weatherlink.com 1.10,2013-01-27 19:46:00,
2013-01-27 21:01:00,36.7,33.0,30.01,South,172,0.0,0.0,87,0.00,,,0.00,weatherlink.com 1.10,2013-01-27 20:01:00,
2013-01-27 21:16:00,36.7,33.0,30.01,South,172,0.0,0.0,87,0.00,,,0.00,weatherlink.com 1.10,2013-01-27 20:16:00,
2013-01-27 21:31:00,36.5,33.0,30.01,South,172,0.0,0.0,87,0.00,,,0.00,weatherlink.com 1.10,2013-01-27 20:31:00,
2013-01-27 21:46:00,36.5,33.0,30.01,South,172,0.0,0.0,87,0.00,,,0.00,weatherlink.com 1.10,2013-01-27 20:46:00,
2013-01-27 22:01:00,36.4,33.0,30.01,South,172,0.0,0.0,87,0.00,,,0.00,weatherlink.com 1.10,2013-01-27 21:01:00,
2013-01-27 22:16:00,36.5,33.0,30.01,South,172,0.0,0.0,87,0.00,,,0.00,weatherlink.com 1.10,2013-01-27 21:16:00,
2013-01-27 22:31:00,36.6,33.0,30.01,South,172,0.0,0.0,87,0.00,,,0.00,weatherlink.com 1.10,2013-01-27 21:31:00,
2013-01-27 22:46:00,36.1,33.0,30.01,South,172,0.0,0.0,87,0.00,,,0.00,weatherlink.com 1.10,2013-01-27 21:46:00,
2013-01-27 23:01:00,36.3,33.0,30.01,South,172,0.0,0.0,88,0.00,,,0.00,weatherlink.com 1.10,2013-01-27 22:01:00,
2013-01-27 23:16:00,36.2,33.0,30.02,South,172,0.0,0.0,88,0.00,,,0.00,weatherlink.com 1.10,2013-01-27 22:16:00,
2013-01-27 23:31:00,36.3,33.0,30.02,South,172,0.0,0.0,88,0.00,,,0.00,weatherlink.com 1.10,2013-01-27 22:31:00,
2013-01-27 23:46:00,36.1,33.0,30.02,South,172,0.0,0.0,88,0.00,,,0.00,weatherlink.com 1.10,2013-01-27 22:46:00,